Time;durP1;ratioP1;P1;durP2;ratioP2;P2;SDS_P1;SDS_P2;PMS_P1;PMS_P2;Temp;Humidity;BMP_temperature;BMP_pressure;BME280_temperature;BME280_humidity;BME280_pressure;Samples;Min_cycle;Max_cycle;Signal;HPM_P1;HPM_P2
2022/08/18 00:02:18;;;;;;;66.03;58.83;;;18.30;91.10;;;;;;4988024;28;20045;-72
2022/08/18 00:04:45;;;;;;;66.07;58.97;;;18.30;91.10;;;;;;4999210;28;20046;-69
2022/08/18 00:07:14;;;;;;;66.30;58.50;;;18.20;91.10;;;;;;4990169;28;20044;-70
2022/08/18 00:09:41;;;;;;;77.63;62.40;;;18.20;91.00;;;;;;4994325;28;20477;-69
2022/08/18 00:12:14;;;;;;;67.03;58.40;;;18.20;91.10;;;;;;4991382;28;20053;-69
2022/08/18 00:14:39;;;;;;;67.15;58.80;;;18.10;91.20;;;;;;4992358;28;20122;-71
2022/08/18 00:17:05;;;;;;;67.30;59.83;;;18.10;91.30;;;;;;4993676;28;20534;-70
2022/08/18 00:19:31;;;;;;;66.05;56.83;;;18.10;91.40;;;;;;4992169;28;20103;-69
2022/08/18 00:21:57;;;;;;;65.28;58.05;;;18.10;91.50;;;;;;4988521;28;20188;-70
2022/08/18 00:24:23;;;;;;;67.60;55.90;;;18.10;91.50;;;;;;4992701;28;20030;-70
2022/08/18 00:26:48;;;;;;;62.70;54.53;;;18.10;91.60;;;;;;4993797;28;20117;-70
2022/08/18 00:29:14;;;;;;;62.00;55.03;;;18.10;91.60;;;;;;4987737;28;20034;-71
2022/08/18 00:31:40;;;;;;;65.03;57.42;;;18.10;91.60;;;;;;4989566;28;20041;-70
2022/08/18 00:34:06;;;;;;;67.38;56.78;;;18.10;91.60;;;;;;4995257;28;20029;-70
2022/08/18 00:36:33;;;;;;;63.78;56.70;;;18.10;91.50;;;;;;4995254;28;20097;-70
2022/08/18 00:38:59;;;;;;;63.97;55.47;;;18.10;91.50;;;;;;4995076;28;20125;-69
2022/08/18 00:41:26;;;;;;;65.13;57.10;;;18.10;91.40;;;;;;4990364;28;20455;-69
2022/08/18 00:43:54;;;;;;;63.40;56.33;;;18.00;91.50;;;;;;5000902;28;20041;-69
2022/08/18 00:46:32;;;;;;;65.93;54.95;;;18.00;91.60;;;;;;4988403;28;20027;-70
2022/08/18 00:48:58;;;;;;;64.28;55.65;;;18.00;91.70;;;;;;4991984;28;20508;-69
2022/08/18 00:51:39;;;;;;;65.57;56.35;;;18.10;91.80;;;;;;4998460;28;20354;-70
2022/08/18 00:54:15;;;;;;;65.45;56.08;;;18.00;91.90;;;;;;4997380;28;20040;-69
2022/08/18 00:56:47;;;;;;;62.13;55.00;;;18.00;91.80;;;;;;4998268;28;20069;-72
2022/08/18 00:59:27;;;;;;;65.38;56.72;;;18.00;91.90;;;;;;4994270;28;20040;-69
2022/08/18 01:02:01;;;;;;;58.85;52.55;;;18.00;91.80;;;;;;4987505;28;20096;-70
2022/08/18 01:04:34;;;;;;;62.27;54.23;;;18.00;91.90;;;;;;4987507;28;20109;-70
2022/08/18 01:07:08;;;;;;;56.60;50.47;;;18.00;91.80;;;;;;4990864;28;20385;-69
2022/08/18 01:09:35;;;;;;;62.95;53.80;;;18.00;91.70;;;;;;4986890;28;20517;-70
2022/08/18 01:12:00;;;;;;;59.42;51.80;;;17.90;91.70;;;;;;4991625;28;20206;-69
2022/08/18 01:14:26;;;;;;;61.60;54.88;;;17.90;91.60;;;;;;4993698;28;20513;-72
2022/08/18 01:22:30;;;;;;;56.35;50.28;;;17.90;91.50;;;;;;4986727;28;20065;-70
2022/08/18 01:27:43;;;;;;;60.17;53.60;;;17.80;91.50;;;;;;4998117;28;20120;-69
2022/08/18 01:30:12;;;;;;;56.67;50.50;;;17.80;91.50;;;;;;4991775;28;20087;-71
2022/08/18 01:32:39;;;;;;;53.80;47.92;;;17.80;91.40;;;;;;4989633;28;20141;-69
2022/08/18 01:35:08;;;;;;;55.88;49.80;;;17.80;91.30;;;;;;4992534;28;20073;-70
2022/08/18 01:37:35;;;;;;;55.60;49.30;;;17.70;91.20;;;;;;4993840;28;20034;-71
2022/08/18 01:40:05;;;;;;;53.70;48.05;;;17.70;91.10;;;;;;4997218;28;20066;-72
2022/08/18 01:42:31;;;;;;;54.33;48.50;;;17.70;91.10;;;;;;4990496;28;20074;-70
2022/08/18 01:44:57;;;;;;;53.85;48.17;;;17.60;91.00;;;;;;4990218;28;20104;-69
2022/08/18 01:47:22;;;;;;;54.80;48.88;;;17.60;91.00;;;;;;4987860;28;20038;-70
2022/08/18 01:49:48;;;;;;;58.88;52.50;;;17.60;91.00;;;;;;4990512;28;20482;-70
2022/08/18 01:52:19;;;;;;;57.30;50.35;;;17.60;91.00;;;;;;4993727;28;20517;-70
2022/08/18 01:54:45;;;;;;;59.33;52.47;;;17.60;91.00;;;;;;4995502;28;20042;-70
2022/08/18 01:57:12;;;;;;;67.13;57.67;;;17.60;90.90;;;;;;4999142;28;20552;-69
2022/08/18 01:59:38;;;;;;;65.57;56.20;;;17.60;90.90;;;;;;4998839;28;20445;-69
2022/08/18 02:02:04;;;;;;;61.97;53.72;;;17.60;91.00;;;;;;4994683;28;20045;-71
2022/08/18 02:04:32;;;;;;;59.80;52.72;;;17.60;90.90;;;;;;4999597;28;20478;-70
2022/08/18 02:06:59;;;;;;;66.00;54.17;;;17.60;90.90;;;;;;4996327;28;20398;-70
2022/08/18 02:09:26;;;;;;;61.25;52.90;;;17.60;90.90;;;;;;4993782;28;20347;-69
2022/08/18 02:11:52;;;;;;;62.42;55.55;;;17.60;91.00;;;;;;5000498;28;20069;-70
2022/08/18 02:14:18;;;;;;;59.92;53.38;;;17.60;91.00;;;;;;4999320;28;20053;-70
2022/08/18 02:16:43;;;;;;;59.80;53.10;;;17.50;91.00;;;;;;4991579;28;20096;-70
2022/08/18 02:19:11;;;;;;;60.78;51.78;;;17.40;91.00;;;;;;4995474;28;20084;-69
2022/08/18 02:21:37;;;;;;;57.28;51.10;;;17.50;91.00;;;;;;4997448;28;20073;-70
2022/08/18 02:24:03;;;;;;;58.63;51.22;;;17.40;90.60;;;;;;4996675;28;20066;-70
2022/08/18 02:26:28;;;;;;;58.95;52.13;;;17.40;90.60;;;;;;4992915;28;20053;-70
2022/08/18 02:28:54;;;;;;;59.05;52.25;;;17.40;90.60;;;;;;4989423;28;20050;-71
2022/08/18 02:31:23;;;;;;;59.45;52.13;;;17.40;90.70;;;;;;4992176;28;20076;-71
2022/08/18 02:33:49;;;;;;;56.10;50.10;;;17.40;90.70;;;;;;5001507;28;20034;-70
2022/08/18 02:36:14;;;;;;;62.00;52.63;;;17.40;90.70;;;;;;4988470;28;20142;-70
2022/08/18 02:38:41;;;;;;;61.70;53.35;;;17.30;90.70;;;;;;4997456;28;20037;-69
2022/08/18 02:41:09;;;;;;;72.00;59.58;;;17.40;90.80;;;;;;4990848;28;20065;-70
2022/08/18 02:43:36;;;;;;;60.40;52.42;;;17.30;90.90;;;;;;4993538;28;20331;-71
2022/08/18 02:46:03;;;;;;;61.03;54.42;;;17.40;91.00;;;;;;4991935;28;20038;-72
2022/08/18 02:48:34;;;;;;;61.20;53.17;;;17.40;90.90;;;;;;4984844;28;20034;-72
2022/08/18 02:51:11;;;;;;;57.83;50.63;;;17.40;90.80;;;;;;4986852;28;20054;-71
2022/08/18 02:53:38;;;;;;;55.42;49.03;;;17.40;90.70;;;;;;4991314;28;20042;-69
2022/08/18 02:58:45;;;;;;;68.35;56.67;;;17.50;90.70;;;;;;4996314;28;20038;-72
2022/08/18 03:01:11;;;;;;;56.97;50.72;;;17.50;90.80;;;;;;4990703;28;20141;-69
2022/08/18 03:03:37;;;;;;;62.15;53.03;;;17.60;90.70;;;;;;4986685;28;20113;-69
2022/08/18 03:06:03;;;;;;;54.80;49.05;;;17.50;90.60;;;;;;5000180;28;20061;-70
2022/08/18 03:08:29;;;;;;;61.70;50.38;;;17.50;90.70;;;;;;4991487;28;20042;-70
2022/08/18 03:10:55;;;;;;;58.55;49.95;;;17.50;90.50;;;;;;4982480;28;20034;-70
2022/08/18 03:13:20;;;;;;;74.00;50.33;;;17.50;90.60;;;;;;4989264;28;20398;-72
2022/08/18 03:15:46;;;;;;;52.00;46.38;;;17.50;90.60;;;;;;4993060;28;20414;-70
2022/08/18 03:18:12;;;;;;;84.93;51.63;;;17.50;90.60;;;;;;4992119;28;20042;-71
2022/08/18 03:20:38;;;;;;;56.72;49.63;;;17.50;90.60;;;;;;4982976;28;20035;-70
2022/08/18 03:23:04;;;;;;;73.68;48.72;;;17.50;90.80;;;;;;4992427;28;20534;-70
2022/08/18 03:25:30;;;;;;;52.42;46.13;;;17.50;90.70;;;;;;4992840;28;20462;-70
2022/08/18 03:27:56;;;;;;;52.92;47.65;;;17.50;90.80;;;;;;4993444;28;20068;-72
2022/08/18 03:30:22;;;;;;;50.60;45.28;;;17.40;90.70;;;;;;4999600;28;20070;-70
2022/08/18 03:32:51;;;;;;;52.00;46.70;;;17.40;90.80;;;;;;4990420;28;20046;-70
2022/08/18 03:35:17;;;;;;;74.78;49.80;;;17.40;90.80;;;;;;4998281;28;20045;-70
2022/08/18 03:37:43;;;;;;;57.83;50.70;;;17.40;90.80;;;;;;4993473;28;20046;-71
2022/08/18 03:40:10;;;;;;;75.78;50.35;;;17.40;91.00;;;;;;4990355;28;20061;-70
2022/08/18 03:42:36;;;;;;;52.85;47.45;;;17.40;91.20;;;;;;4996001;28;20046;-70
2022/08/18 03:45:02;;;;;;;55.22;49.03;;;17.40;91.20;;;;;;4994628;28;20074;-71
2022/08/18 03:47:28;;;;;;;55.25;49.60;;;17.40;91.30;;;;;;4997427;28;20030;-70
2022/08/18 03:49:53;;;;;;;50.63;45.58;;;17.40;91.00;;;;;;4993757;28;20044;-69
2022/08/18 03:52:19;;;;;;;50.38;45.15;;;17.40;90.90;;;;;;4999722;28;20514;-70
2022/08/18 03:54:45;;;;;;;65.72;46.47;;;17.30;91.00;;;;;;4986694;28;20029;-70
2022/08/18 03:57:11;;;;;;;50.17;45.33;;;17.30;91.10;;;;;;4990966;28;20042;-70
2022/08/18 03:59:40;;;;;;;49.58;44.58;;;17.30;91.20;;;;;;4994724;28;20038;-70
2022/08/18 04:02:06;;;;;;;59.70;46.72;;;17.30;91.30;;;;;;4999003;28;20042;-70
2022/08/18 04:04:32;;;;;;;74.70;47.50;;;17.20;91.20;;;;;;4990553;28;20089;-70
2022/08/18 04:07:03;;;;;;;52.53;45.55;;;17.10;91.40;;;;;;4994413;28;20474;-70
2022/08/18 04:09:29;;;;;;;50.75;45.88;;;17.10;91.50;;;;;;4992468;28;20031;-73
2022/08/18 04:12:01;;;;;;;50.80;45.58;;;17.10;91.70;;;;;;4994834;28;20290;-70
2022/08/18 04:14:31;;;;;;;60.80;45.58;;;17.10;91.80;;;;;;4989815;28;20081;-70
2022/08/18 04:16:57;;;;;;;50.10;45.33;;;17.10;91.90;;;;;;4995942;28;20097;-70
2022/08/18 04:19:23;;;;;;;79.53;47.53;;;17.10;92.00;;;;;;4993174;28;20501;-70
2022/08/18 04:21:51;;;;;;;49.00;44.33;;;17.10;92.10;;;;;;4990006;28;20460;-71
2022/08/18 04:24:17;;;;;;;51.92;47.00;;;17.10;92.00;;;;;;4987336;28;20470;-70
2022/08/18 04:26:46;;;;;;;46.90;42.55;;;17.10;92.30;;;;;;4989447;28;20093;-71
2022/08/18 04:29:14;;;;;;;47.95;43.35;;;17.10;92.30;;;;;;4988158;28;20497;-71
2022/08/18 04:31:40;;;;;;;49.92;45.22;;;17.20;92.30;;;;;;4989661;28;20034;-70
2022/08/18 04:34:05;;;;;;;70.00;46.20;;;17.20;92.20;;;;;;4999299;28;20592;-70
2022/08/18 04:36:33;;;;;;;53.53;44.90;;;17.20;92.20;;;;;;5001634;28;20042;-72
2022/08/18 04:38:59;;;;;;;60.25;47.67;;;17.20;92.30;;;;;;4989192;28;20100;-70
2022/08/18 04:41:26;;;;;;;50.70;45.72;;;17.20;92.30;;;;;;4989223;28;20038;-71
2022/08/18 04:44:00;;;;;;;49.78;44.78;;;17.20;92.50;;;;;;4994306;28;20390;-70
2022/08/18 04:46:27;;;;;;;50.72;45.47;;;17.20;92.50;;;;;;4995558;28;20529;-70
2022/08/18 04:48:57;;;;;;;46.65;42.35;;;17.20;92.50;;;;;;4992918;28;20041;-70
2022/08/18 04:51:25;;;;;;;51.30;45.67;;;17.20;92.50;;;;;;4987924;28;20073;-70
2022/08/18 04:53:51;;;;;;;47.78;43.10;;;17.20;92.50;;;;;;4990647;28;20169;-70
2022/08/18 04:56:26;;;;;;;47.00;41.92;;;17.20;92.60;;;;;;4987379;28;20133;-73
2022/08/18 04:58:59;;;;;;;68.28;42.05;;;17.20;92.50;;;;;;4992473;28;20042;-70
2022/08/18 05:01:28;;;;;;;47.75;43.00;;;17.20;92.40;;;;;;4990473;28;20045;-70
2022/08/18 05:03:56;;;;;;;49.75;44.72;;;17.10;92.30;;;;;;4999987;28;20038;-70
2022/08/18 05:06:26;;;;;;;44.70;40.38;;;17.10;92.50;;;;;;4990310;28;20041;-70
2022/08/18 05:08:53;;;;;;;70.68;43.30;;;17.20;92.40;;;;;;4992816;28;20477;-70
2022/08/18 05:11:20;;;;;;;47.17;42.65;;;17.30;92.50;;;;;;4983762;28;20568;-70
2022/08/18 05:13:47;;;;;;;91.43;48.47;;;17.20;92.50;;;;;;4993197;28;20073;-70
2022/08/18 05:16:14;;;;;;;49.45;44.38;;;17.30;92.50;;;;;;4999474;28;20050;-70
2022/08/18 05:18:40;;;;;;;59.83;47.83;;;17.30;92.50;;;;;;4990545;28;20030;-70
2022/08/18 05:21:13;;;;;;;52.47;47.00;;;17.40;92.40;;;;;;4996610;28;20061;-71
2022/08/18 05:23:40;;;;;;;51.05;46.00;;;17.40;92.30;;;;;;4990474;28;20065;-70
2022/08/18 05:26:06;;;;;;;53.70;45.33;;;17.50;92.30;;;;;;5000092;28;20102;-71
2022/08/18 05:28:33;;;;;;;60.58;46.55;;;17.50;92.10;;;;;;4990635;28;20603;-72
2022/08/18 05:31:15;;;;;;;49.88;44.92;;;17.40;91.90;;;;;;4997183;28;20121;-70
2022/08/18 05:33:41;;;;;;;52.10;45.50;;;17.50;92.10;;;;;;5019465;28;20035;-70
2022/08/18 05:36:29;;;;;;;145.65;52.10;;;17.50;92.00;;;;;;4999793;28;20030;-70
2022/08/18 05:39:03;;;;;;;47.65;43.05;;;17.50;91.80;;;;;;4995029;28;20038;-70
2022/08/18 05:41:34;;;;;;;49.45;44.55;;;17.60;91.90;;;;;;4983022;28;20215;-70
2022/08/18 05:44:01;;;;;;;50.03;44.95;;;17.70;91.90;;;;;;4988656;28;20046;-71
2022/08/18 05:46:47;;;;;;;91.60;47.35;;;17.80;91.70;;;;;;4996088;28;20243;-70
2022/08/18 05:49:14;;;;;;;171.32;46.15;;;17.90;91.30;;;;;;4996599;28;20036;-70
2022/08/18 05:51:46;;;;;;;44.88;40.03;;;17.60;90.30;;;;;;4987074;28;20042;-70
2022/08/18 05:57:04;;;;;;;48.50;43.75;;;17.90;91.10;;;;;;4986657;28;20042;-70
2022/08/18 05:59:33;;;;;;;153.48;44.70;;;17.90;90.80;;;;;;4984398;28;20034;-69
2022/08/18 06:02:12;;;;;;;42.38;38.30;;;18.00;90.60;;;;;;4991593;28;20129;-69
2022/08/18 06:04:49;;;;;;;45.55;41.03;;;18.00;90.70;;;;;;4990478;28;20117;-69
2022/08/18 06:07:29;;;;;;;49.33;44.22;;;18.10;90.40;;;;;;4992825;28;20323;-70
2022/08/18 06:09:55;;;;;;;46.28;41.72;;;18.20;90.50;;;;;;5021671;28;20113;-70
2022/08/18 06:12:32;;;;;;;48.45;43.65;;;18.30;90.50;;;;;;4996315;28;20523;-70
2022/08/18 06:15:14;;;;;;;71.45;44.42;;;18.30;90.10;;;;;;4996314;28;20040;-70
2022/08/18 06:17:57;;;;;;;45.10;40.60;;;18.30;89.60;;;;;;5021679;28;20402;-70
2022/08/18 06:20:58;;;;;;;51.50;40.50;;;18.30;89.50;;;;;;4993198;28;20046;-70
2022/08/18 06:23:52;;;;;;;65.78;45.45;;;18.30;89.10;;;;;;4995127;28;20393;-70
2022/08/18 06:26:24;;;;;;;56.95;45.97;;;18.30;89.30;;;;;;4986288;28;20053;-70
2022/08/18 06:29:17;;;;;;;55.88;48.15;;;18.40;89.10;;;;;;4996905;28;20501;-70
2022/08/18 06:31:55;;;;;;;61.40;47.03;;;18.50;89.50;;;;;;5016934;28;20049;-70
2022/08/18 06:34:41;;;;;;;119.15;49.42;;;18.60;89.30;;;;;;5018062;28;20041;-70
2022/08/18 06:37:16;;;;;;;50.88;45.40;;;18.60;88.90;;;;;;5014261;28;20521;-71
2022/08/18 06:39:48;;;;;;;50.13;44.75;;;18.60;88.90;;;;;;5018088;28;20038;-70
2022/08/18 06:42:24;;;;;;;61.42;46.70;;;18.70;89.10;;;;;;5003106;28;20532;-70
2022/08/18 06:45:11;;;;;;;53.15;47.75;;;18.80;88.90;;;;;;5016150;28;20030;-69
2022/08/18 06:48:04;;;;;;;52.83;46.63;;;19.00;88.80;;;;;;5015966;28;20501;-72
2022/08/18 06:50:41;;;;;;;58.05;50.45;;;19.00;88.50;;;;;;5016286;28;20109;-70
2022/08/18 06:53:07;;;;;;;54.85;49.08;;;19.20;88.60;;;;;;5011711;28;20068;-70
2022/08/18 06:55:44;;;;;;;58.92;51.28;;;19.30;88.00;;;;;;5016649;28;20061;-72
2022/08/18 06:58:16;;;;;;;120.63;53.10;;;19.40;88.20;;;;;;5014788;28;20049;-70
2022/08/18 07:00:54;;;;;;;107.47;52.70;;;19.50;87.40;;;;;;5005545;28;20046;-70
2022/08/18 07:03:42;;;;;;;123.35;50.80;;;19.50;87.40;;;;;;5019306;28;20401;-69
2022/08/18 07:06:22;;;;;;;61.78;50.95;;;19.50;87.30;;;;;;5019656;28;20037;-69
2022/08/18 07:08:50;;;;;;;50.40;45.10;;;19.60;88.10;;;;;;5014393;28;20030;-70
2022/08/18 07:11:16;;;;;;;47.03;42.38;;;19.70;87.90;;;;;;5014269;28;20060;-71
2022/08/18 07:13:44;;;;;;;47.03;42.10;;;19.80;86.90;;;;;;5015115;28;20034;-70
2022/08/18 07:16:28;;;;;;;46.65;41.78;;;19.80;86.80;;;;;;5020517;28;20115;-70
2022/08/18 07:19:04;;;;;;;47.60;42.47;;;20.00;87.20;;;;;;5009516;28;20033;-70
2022/08/18 07:21:32;;;;;;;46.97;42.17;;;20.20;87.10;;;;;;5014798;28;20041;-70
2022/08/18 07:24:06;;;;;;;47.80;42.58;;;20.40;86.20;;;;;;5015655;28;20095;-69
2022/08/18 07:27:06;;;;;;;46.80;41.08;;;20.50;85.70;;;;;;5020503;28;20053;-71
2022/08/18 07:29:37;;;;;;;48.20;43.13;;;20.30;85.20;;;;;;5013559;28;20042;-69
2022/08/18 07:32:18;;;;;;;49.83;44.53;;;20.30;85.60;;;;;;5012970;28;20560;-69
2022/08/18 07:34:52;;;;;;;51.13;43.92;;;20.20;85.70;;;;;;5008533;28;20048;-70
2022/08/18 07:37:22;;;;;;;59.10;43.45;;;20.10;86.90;;;;;;5020326;28;20183;-70
2022/08/18 07:39:57;;;;;;;50.40;44.97;;;20.20;87.20;;;;;;5015262;28;20397;-70
2022/08/18 07:42:41;;;;;;;67.32;43.60;;;20.40;86.90;;;;;;5007974;28;20053;-71
2022/08/18 07:45:39;;;;;;;73.30;47.42;;;20.40;86.00;;;;;;4999660;28;20038;-70
2022/08/18 07:48:14;;;;;;;47.60;42.47;;;20.50;85.70;;;;;;5013935;28;20052;-69
2022/08/18 07:51:17;;;;;;;48.53;43.47;;;20.30;86.50;;;;;;5016919;28;20045;-71
2022/08/18 07:54:08;;;;;;;49.88;44.13;;;20.60;86.20;;;;;;5011625;28;20319;-70
2022/08/18 07:56:42;;;;;;;49.28;43.97;;;20.80;85.20;;;;;;5032089;28;20157;-71
2022/08/18 07:59:15;;;;;;;50.38;45.03;;;20.90;85.60;;;;;;5010075;28;20173;-70
2022/08/18 08:01:48;;;;;;;51.42;45.72;;;21.10;85.00;;;;;;4998901;28;20271;-71
2022/08/18 08:04:39;;;;;;;48.50;43.45;;;21.20;84.30;;;;;;5010756;28;20447;-70
2022/08/18 08:07:13;;;;;;;45.03;40.30;;;21.10;84.00;;;;;;5016165;28;20406;-71
2022/08/18 08:09:44;;;;;;;48.42;43.45;;;21.30;84.10;;;;;;5018349;28;20091;-71
2022/08/18 08:12:20;;;;;;;46.78;41.97;;;21.40;84.30;;;;;;5010230;28;20185;-71
2022/08/18 08:14:50;;;;;;;43.20;38.88;;;21.60;83.60;;;;;;5007011;28;20100;-70
2022/08/18 08:17:22;;;;;;;43.55;39.28;;;21.70;83.00;;;;;;5010696;28;20108;-70
2022/08/18 08:20:03;;;;;;;44.03;39.60;;;21.60;82.40;;;;;;5008889;28;20457;-71
2022/08/18 08:22:54;;;;;;;44.65;40.13;;;21.70;82.30;;;;;;5008591;28;20038;-70
2022/08/18 08:25:33;;;;;;;46.08;41.47;;;21.60;82.40;;;;;;5015844;28;20041;-70
2022/08/18 08:27:59;;;;;;;45.58;40.80;;;21.50;82.60;;;;;;5019529;28;20033;-70
2022/08/18 08:30:30;;;;;;;45.97;41.47;;;21.60;82.80;;;;;;5011018;28;20049;-70
2022/08/18 08:33:14;;;;;;;44.00;39.72;;;21.60;83.30;;;;;;5020049;28;20037;-70
2022/08/18 08:35:53;;;;;;;44.95;40.60;;;21.80;82.90;;;;;;5015232;28;20133;-70
2022/08/18 08:38:45;;;;;;;49.90;44.80;;;22.00;82.20;;;;;;5022934;28;20421;-71
2022/08/18 08:41:21;;;;;;;49.22;44.33;;;22.20;81.90;;;;;;5007692;28;20474;-72
2022/08/18 08:44:09;;;;;;;50.92;45.83;;;22.40;81.10;;;;;;5008383;28;20129;-70
2022/08/18 08:46:51;;;;;;;48.33;43.42;;;22.50;80.70;;;;;;5020487;28;20037;-70
2022/08/18 08:49:55;;;;;;;47.00;42.30;;;22.50;80.40;;;;;;5006252;28;20053;-71
2022/08/18 08:52:26;;;;;;;52.20;47.00;;;22.60;80.30;;;;;;4998417;28;20045;-72
2022/08/18 08:55:01;;;;;;;51.65;46.45;;;22.90;79.50;;;;;;5009290;28;20508;-70
2022/08/18 08:57:35;;;;;;;51.08;46.05;;;23.10;78.60;;;;;;5004907;28;20536;-71
2022/08/18 09:00:05;;;;;;;51.25;46.13;;;23.40;77.10;;;;;;5015593;28;20045;-71
2022/08/18 09:02:43;;;;;;;51.85;46.60;;;23.50;75.80;;;;;;5034384;28;20553;-72
2022/08/18 09:05:26;;;;;;;61.17;54.88;;;23.60;74.80;;;;;;5006854;28;20492;-71
2022/08/18 09:07:59;;;;;;;69.80;62.63;;;23.60;74.10;;;;;;5015404;28;20445;-70
2022/08/18 09:10:40;;;;;;;61.53;54.88;;;24.00;74.60;;;;;;5006889;28;20033;-72
2022/08/18 09:13:33;;;;;;;57.92;52.25;;;24.30;73.30;;;;;;5006846;28;20085;-71
2022/08/18 09:16:40;;;;;;;56.72;50.70;;;24.30;72.20;;;;;;5011900;28;20041;-71
2022/08/18 09:19:12;;;;;;;57.13;51.42;;;24.30;70.50;;;;;;5010270;28;20144;-71
2022/08/18 09:21:58;;;;;;;53.28;48.03;;;24.30;71.50;;;;;;5015138;28;20129;-71
2022/08/18 09:24:31;;;;;;;49.22;44.22;;;24.50;71.80;;;;;;5014965;28;20104;-71
2022/08/18 09:27:34;;;;;;;43.78;39.47;;;24.80;69.90;;;;;;5012275;28;20034;-72
2022/08/18 09:30:03;;;;;;;38.03;34.08;;;24.60;68.80;;;;;;5006518;28;20050;-72
2022/08/18 09:32:43;;;;;;;37.78;34.05;;;24.70;69.40;;;;;;5017096;28;20513;-71
2022/08/18 09:35:33;;;;;;;39.42;35.45;;;24.90;68.30;;;;;;5004143;28;20443;-72
2022/08/18 09:44:12;;;;;;;37.57;33.87;;;24.30;70.20;;;;;;5009728;28;20052;-71
2022/08/18 09:46:43;;;;;;;36.63;33.13;;;24.40;69.30;;;;;;5008535;28;20277;-71
2022/08/18 09:49:24;;;;;;;37.42;34.00;;;24.60;67.30;;;;;;5011318;28;20460;-71
2022/08/18 09:51:56;;;;;;;34.63;31.42;;;24.90;67.10;;;;;;5011875;28;20125;-71
2022/08/18 09:54:32;;;;;;;38.30;34.50;;;25.10;65.60;;;;;;5011364;28;20041;-71
2022/08/18 09:57:16;;;;;;;35.63;32.28;;;25.50;65.50;;;;;;5007362;28;20045;-71
2022/08/18 09:59:46;;;;;;;38.17;34.42;;;25.70;63.50;;;;;;5015108;28;20047;-71
2022/08/18 10:02:32;;;;;;;37.28;33.67;;;26.00;63.80;;;;;;5019460;28;20034;-71
2022/08/18 10:05:16;;;;;;;44.25;39.97;;;26.10;64.00;;;;;;5017022;28;20120;-71
2022/08/18 10:07:47;;;;;;;41.40;37.45;;;26.10;63.70;;;;;;5013999;28;20042;-72
2022/08/18 10:10:28;;;;;;;34.03;30.65;;;26.10;64.50;;;;;;5013095;28;20334;-71
2022/08/18 10:13:18;;;;;;;34.67;31.35;;;26.50;62.90;;;;;;5014874;28;20489;-71
2022/08/18 10:16:00;;;;;;;33.47;30.33;;;26.80;61.40;;;;;;5010211;28;20038;-71
2022/08/18 10:18:53;;;;;;;31.42;28.45;;;26.70;61.40;;;;;;5014341;28;21753;-71
2022/08/18 10:21:26;;;;;;;29.63;26.60;;;26.50;61.90;;;;;;5015514;28;20262;-71
2022/08/18 10:24:15;;;;;;;27.27;24.55;;;26.70;61.20;;;;;;5014081;28;20072;-71
2022/08/18 10:26:40;;;;;;;27.73;25.02;;;27.20;59.50;;;;;;5010344;28;20034;-71
2022/08/18 10:29:06;;;;;;;24.02;21.30;;;27.30;58.80;;;;;;5019847;28;20040;-71
2022/08/18 10:32:07;;;;;;;24.83;22.50;;;27.40;57.20;;;;;;5014181;28;20096;-71
2022/08/18 10:34:52;;;;;;;23.40;21.17;;;27.10;57.40;;;;;;5006490;28;20033;-70
2022/08/18 10:37:25;;;;;;;22.50;20.38;;;27.40;56.20;;;;;;5018360;28;20041;-72
2022/08/18 10:39:54;;;;;;;28.10;25.40;;;27.30;57.10;;;;;;5023460;28;20068;-71
2022/08/18 10:42:25;;;;;;;23.92;21.67;;;27.50;56.10;;;;;;5017269;28;20053;-71
2022/08/18 10:44:59;;;;;;;28.48;25.60;;;27.80;55.70;;;;;;5021930;28;20484;-71
2022/08/18 10:47:28;;;;;;;;;;;27.40;57.00;;;;;;5018339;28;20042;-70
2022/08/18 10:49:54;;;;;;;26.45;23.98;;;26.60;58.90;;;;;;5022367;28;19939;-71
2022/08/18 10:52:35;;;;;;;27.50;24.80;;;26.30;58.90;;;;;;5003209;28;20034;-71
2022/08/18 10:55:28;;;;;;;23.60;21.33;;;26.00;60.20;;;;;;5018903;28;20045;-74
2022/08/18 10:58:09;;;;;;;27.42;24.95;;;25.90;60.30;;;;;;5014671;28;20041;-71
2022/08/18 11:00:59;;;;;;;30.45;27.55;;;26.20;60.60;;;;;;5008716;28;20044;-71
2022/08/18 11:03:44;;;;;;;29.92;27.20;;;26.00;60.00;;;;;;5004478;28;20046;-71
2022/08/18 11:06:13;;;;;;;;;;;25.90;61.50;;;;;;5017618;28;20045;-71
2022/08/18 11:08:43;;;;;;;32.70;29.83;;;26.10;60.80;;;;;;5023768;28;20349;-72
2022/08/18 11:11:11;;;;;;;32.90;29.88;;;26.10;59.50;;;;;;5022879;28;20046;-72
2022/08/18 11:13:36;;;;;;;30.88;28.13;;;26.00;59.90;;;;;;5011551;28;20057;-72
2022/08/18 11:16:17;;;;;;;31.52;28.83;;;25.80;60.30;;;;;;5010931;28;20093;-72
2022/08/18 11:18:48;;;;;;;33.72;30.70;;;25.80;61.50;;;;;;5010339;28;20242;-72
2022/08/18 11:21:39;;;;;;;30.92;28.08;;;25.60;62.20;;;;;;5009320;28;20180;-72
2022/08/18 11:24:12;;;;;;;33.00;29.75;;;25.80;62.10;;;;;;5016971;28;20123;-73
2022/08/18 11:26:47;;;;;;;29.88;27.27;;;26.40;60.20;;;;;;5014159;28;20053;-71
2022/08/18 11:29:33;;;;;;;31.23;28.30;;;26.60;59.60;;;;;;5041073;28;20048;-71
2022/08/18 11:32:22;;;;;;;30.95;27.88;;;27.10;58.30;;;;;;5022885;28;20033;-71
2022/08/18 11:34:52;;;;;;;29.67;27.08;;;27.10;57.70;;;;;;5009498;28;20038;-71
2022/08/18 11:37:40;;;;;;;30.77;27.90;;;27.40;57.40;;;;;;5015679;28;20085;-71
2022/08/18 11:40:20;;;;;;;26.83;24.42;;;27.40;56.60;;;;;;5011938;28;20099;-72
2022/08/18 11:43:11;;;;;;;30.55;27.77;;;27.50;57.10;;;;;;5009220;28;20046;-71
2022/08/18 11:45:53;;;;;;;24.80;22.60;;;27.70;56.90;;;;;;4985612;28;20332;-72
2022/08/18 11:48:27;;;;;;;29.25;26.63;;;27.80;57.90;;;;;;5017922;28;20032;-71
2022/08/18 11:51:00;;;;;;;28.98;26.23;;;27.40;57.40;;;;;;5010493;28;20095;-71
2022/08/18 11:53:32;;;;;;;26.33;24.08;;;26.90;57.20;;;;;;5022044;28;20084;-71
2022/08/18 11:56:13;;;;;;;28.25;25.65;;;27.00;58.50;;;;;;5021115;28;20045;-72
2022/08/18 11:58:46;;;;;;;23.50;21.40;;;27.40;57.90;;;;;;5047802;28;20034;-73
2022/08/18 12:01:53;;;;;;;22.42;20.23;;;27.60;55.90;;;;;;5013266;28;20039;-71
2022/08/18 12:04:19;;;;;;;19.00;17.05;;;27.80;55.50;;;;;;5012046;28;20120;-72
2022/08/18 12:07:09;;;;;;;21.50;19.33;;;27.90;54.90;;;;;;5043087;28;20389;-71
2022/08/18 12:10:11;;;;;;;19.00;17.20;;;27.80;53.40;;;;;;5006798;28;20041;-71
2022/08/18 12:12:47;;;;;;;23.92;21.45;;;27.60;55.30;;;;;;4970750;28;1222087;-72
2022/08/18 12:15:13;;;;;;;20.17;18.27;;;27.30;55.70;;;;;;5012042;28;20425;-72
2022/08/18 12:17:40;;;;;;;24.80;22.58;;;27.20;55.60;;;;;;5050030;28;20494;-71
2022/08/18 12:20:08;;;;;;;21.88;19.60;;;27.50;53.40;;;;;;5006502;28;20437;-71
2022/08/18 12:22:35;;;;;;;23.05;20.85;;;27.70;53.40;;;;;;5017507;28;20128;-72
2022/08/18 12:25:04;;;;;;;19.00;17.10;;;28.20;51.50;;;;;;5012229;28;20421;-73
2022/08/18 12:27:33;;;;;;;17.15;15.45;;;28.60;52.50;;;;;;5008839;28;20029;-72
2022/08/18 12:30:00;;;;;;;16.60;14.98;;;29.00;49.90;;;;;;5012937;28;20050;-72
2022/08/18 12:32:28;;;;;;;21.70;19.60;;;29.20;50.20;;;;;;5023484;28;20121;-71
2022/08/18 12:34:54;;;;;;;18.15;16.35;;;29.20;48.80;;;;;;5019315;28;20087;-71
2022/08/18 12:37:23;;;;;;;18.27;16.42;;;28.80;50.50;;;;;;5013266;28;20030;-71
2022/08/18 12:39:49;;;;;;;17.45;15.85;;;28.30;50.70;;;;;;5015447;28;20045;-72
2022/08/18 12:42:15;;;;;;;17.55;15.85;;;28.30;51.80;;;;;;5011089;28;20118;-71
2022/08/18 12:44:41;;;;;;;18.65;16.80;;;28.80;52.20;;;;;;5020950;28;20505;-71
2022/08/18 12:47:12;;;;;;;16.45;14.85;;;29.00;49.60;;;;;;5009018;28;20526;-72
2022/08/18 12:49:38;;;;;;;15.38;13.82;;;29.20;49.90;;;;;;5011553;28;20414;-71
2022/08/18 12:52:05;;;;;;;17.05;15.45;;;29.50;49.30;;;;;;5014069;28;20045;-72
2022/08/18 12:54:32;;;;;;;17.13;15.43;;;29.40;50.00;;;;;;5005700;28;20033;-72
2022/08/18 12:56:58;;;;;;;15.80;14.15;;;29.20;49.90;;;;;;5016329;28;20033;-72
2022/08/18 12:59:24;;;;;;;14.35;12.85;;;29.10;51.80;;;;;;5011710;28;20034;-72
2022/08/18 13:01:50;;;;;;;17.05;15.27;;;29.20;51.40;;;;;;5012883;28;20048;-73
2022/08/18 13:04:16;;;;;;;17.48;15.82;;;29.30;50.30;;;;;;5010442;28;20539;-72
2022/08/18 13:06:48;;;;;;;18.50;16.75;;;29.30;51.00;;;;;;5017923;28;20061;-72
2022/08/18 13:09:14;;;;;;;18.67;16.80;;;29.00;50.40;;;;;;5010545;28;20547;-72
2022/08/18 13:11:40;;;;;;;20.38;18.48;;;28.50;52.20;;;;;;5013313;28;20049;-72
2022/08/18 13:14:06;;;;;;;21.40;19.13;;;28.30;51.30;;;;;;5008521;28;20038;-72
2022/08/18 13:16:35;;;;;;;19.40;17.45;;;28.00;51.50;;;;;;5003581;28;20109;-73
2022/08/18 13:19:01;;;;;;;18.23;16.30;;;27.80;52.30;;;;;;5009858;28;20183;-73